NOAA Web Site Link Tides and Currents Home Page Transparent placeholder image

Parts of the U.S. Government are closed. However, because the information this site provides is necessary to protect life and property, it will be updated and maintained during the Federal Government shutdown. For critical weather information, please visit www.weather.gov. To learn more, see www.commerce.gov.

PORTS® Data Listing: 8539094 Burlington, Delaware River, NJ

CO-OPS RAW PORTS DATA

************************      PRELIMINARY DATA      ************************** 

     THIS RAW DATA HAS NOT BEEN SUBJECT TO THE NATIONAL OCEAN SERVICE'S        
     QUALITY CONTROL OR QUALITY ASSURANCE PROCEDURES AND DOES NOT MEET         
     THE CRITERIA AND STANDARDS OF OFFICIAL NATIONAL OCEAN SERVICE             
     DATA.  IT IS RELEASED FOR LIMITED PUBLIC USE AS PRELIMINARY DATA TO       
     BE USED ONLY WITH APPROPRIATE CAUTION.                                    

************************      PRELIMINARY DATA      ************************** 


       CD   -   Calendar date
       T    -   Time
       TZ   -   Timezone
       PW   -   Predicted water level (feet above MLLW)
       OW   -   Observed water level (feet above MLLW)
       WS   -   Wind speed (knots)
       WD   -   Wind direction (degrees true)
       WG   -   Wind gust (knots)
       AT   -   Air temperature (degrees farenheit)
       WT   -   Water temperature (degrees farenheit)
       AP   -   Air pressure (millibars)
       SA   -   Salinty (PSU - Practical Salinity Units)
       SG   -   Specific gravity
       RH   -   Relative humidity
       AG   -   Air gap (feet)
       VI   -   Visibility (nautical miles)

       ** NOTE **
       A variable that has its data fields filled with "9"s, indicates that
       data was not collected for that sample period.
       **********


STATION NAME: Burlington, Delaware River (8539094)
****************************************************************************************************
    CD       T    TZ    PW     OW    WS   WD   WG    AT    WT    AP    SA    SG     RH    AG   VI
****************************************************************************************************
2019/01/20 08:00 EST   -0.43   2.07    4   78    6  40.5  34.7  992.7 -9.9 -9.999 -99.9 -99.99 -9.99
2019/01/20 08:06 EST   -0.45   2.02    5   79    5  40.3  34.7  992.1 -9.9 -9.999 -99.9 -99.99 -9.99
2019/01/20 08:12 EST   -0.47   2.00    6   89    7  40.3  34.7  991.4 -9.9 -9.999 -99.9 -99.99 -9.99
2019/01/20 08:18 EST   -0.47   1.99    4   92    7  40.5  34.7  991.9 -9.9 -9.999 -99.9 -99.99 -9.99
2019/01/20 08:24 EST   -0.46   2.02    4   84    5  40.6  34.7  991.9 -9.9 -9.999 -99.9 -99.99 -9.99
2019/01/20 08:30 EST   -0.43   2.07    3   46    4  40.5  34.7  991.7 -9.9 -9.999 -99.9 -99.99 -9.99
2019/01/20 08:36 EST   -0.38   2.21    2   34    2  40.6  34.7  991.6 -9.9 -9.999 -99.9 -99.99 -9.99
2019/01/20 08:42 EST   -0.32   2.44    3   56    5  40.3  34.7  991.2 -9.9 -9.999 -99.9 -99.99 -9.99
2019/01/20 08:48 EST   -0.24   2.73    2   50    3  40.5  34.9  990.9 -9.9 -9.999 -99.9 -99.99 -9.99
2019/01/20 08:54 EST   -0.14   3.05    4   53    5  39.9  34.9  990.2 -9.9 -9.999 -99.9 -99.99 -9.99
2019/01/20 09:00 EST   -0.03   3.33    2   23    4  40.3  34.9  990.0 -9.9 -9.999 -99.9 -99.99 -9.99
2019/01/20 09:06 EST    0.10   3.59    1    5    4  40.6  35.1  990.0 -9.9 -9.999 -99.9 -99.99 -9.99
2019/01/20 09:12 EST    0.25   3.81    0  331    2  41.0  35.1  990.2 -9.9 -9.999 -99.9 -99.99 -9.99
2019/01/20 09:18 EST    0.41   4.03    2   94    2  40.3  35.1  990.2 -9.9 -9.999 -99.9 -99.99 -9.99
2019/01/20 09:24 EST    0.59   4.22    2   92    3  40.6  35.1  990.1 -9.9 -9.999 -99.9 -99.99 -9.99
2019/01/20 09:30 EST    0.78   4.41    2   71    3  40.6  35.1  989.7 -9.9 -9.999 -99.9 -99.99 -9.99
2019/01/20 09:36 EST    0.99   4.59    1   72    2  40.6  35.1  989.5 -9.9 -9.999 -99.9 -99.99 -9.99
2019/01/20 09:42 EST    1.20   4.76    2  121    2  40.3  35.1  989.6 -9.9 -9.999 -99.9 -99.99 -9.99
2019/01/20 09:48 EST    1.43   4.94    2   91    2  40.6  34.9  989.5 -9.9 -9.999 -99.9 -99.99 -9.99
2019/01/20 09:54 EST    1.66   5.09    3  331    5  40.6  34.9  989.5 -9.9 -9.999 -99.9 -99.99 -9.99
2019/01/20 10:00 EST    1.90   5.29    5  275   12  41.4  34.9  989.7 -9.9 -9.999 -99.9 -99.99 -9.99
2019/01/20 10:06 EST    2.15   5.46    7  307   10  43.3  34.9  990.6 -9.9 -9.999 -99.9 -99.99 -9.99
2019/01/20 10:12 EST    2.40   5.62    6  307   21  46.2  34.9  990.4 -9.9 -9.999 -99.9 -99.99 -9.99
2019/01/20 10:18 EST    2.65   5.83    7  299   11  45.9  34.9  990.6 -9.9 -9.999 -99.9 -99.99 -9.99
2019/01/20 10:24 EST    2.91   6.03    8  293   13  45.5  34.9  990.9 -9.9 -9.999 -99.9 -99.99 -9.99
2019/01/20 10:30 EST    3.16   6.24    5  298   10  45.7  35.1  990.8 -9.9 -9.999 -99.9 -99.99 -9.99
2019/01/20 10:36 EST    3.42   6.47    7  284   11  45.5  35.2  991.1 -9.9 -9.999 -99.9 -99.99 -9.99
2019/01/20 10:42 EST    3.67   6.79    4  299    8  46.0  35.2  991.0 -9.9 -9.999 -99.9 -99.99 -9.99
2019/01/20 10:48 EST    3.92   7.09    7  290   11  46.0  35.2  991.1 -9.9 -9.999 -99.9 -99.99 -9.99
2019/01/20 10:54 EST    4.17   7.39    6  302   11  46.0  35.2  991.2 -9.9 -9.999 -99.9 -99.99 -9.99
2019/01/20 11:00 EST    4.41   7.64   11  287   16  46.0  35.1  991.3 -9.9 -9.999 -99.9 -99.99 -9.99
2019/01/20 11:06 EST    4.65   7.86   13  286   24  45.7  35.1  991.6 -9.9 -9.999 -99.9 -99.99 -9.99
2019/01/20 11:12 EST    4.88   8.06   11  297   17  45.0  35.1  991.7 -9.9 -9.999 -99.9 -99.99 -9.99
2019/01/20 11:18 EST    5.11   8.23   13  298   19  43.9  35.1  991.7 -9.9 -9.999 -99.9 -99.99 -9.99
2019/01/20 11:24 EST    5.33   8.40    7  302   17  43.3  35.1  991.9 -9.9 -9.999 -99.9 -99.99 -9.99
2019/01/20 11:30 EST    5.54   8.56   11  301   15  43.0  35.1  991.8 -9.9 -9.999 -99.9 -99.99 -9.99
2019/01/20 11:36 EST    5.75   8.70    8  304   15  43.0  34.9  991.8 -9.9 -9.999 -99.9 -99.99 -9.99
2019/01/20 11:42 EST    5.95   8.86   11  299   16  42.6  34.9  991.9 -9.9 -9.999 -99.9 -99.99 -9.99
2019/01/20 11:48 EST    6.14   9.00   13  308   19  42.1  34.9  992.0 -9.9 -9.999 -99.9 -99.99 -9.99
2019/01/20 11:54 EST    6.33   9.15    9  307   17  41.5  34.9  992.0 -9.9 -9.999 -99.9 -99.99 -9.99
2019/01/20 12:00 EST    6.50   9.27   10  318   18  41.0  34.9  992.3 -9.9 -9.999 -99.9 -99.99 -9.99
2019/01/20 12:06 EST    6.67   9.38    9  309   18  40.8  34.9  992.6 -9.9 -9.999 -99.9 -99.99 -9.99
2019/01/20 12:12 EST    6.83   9.48   11  301   22  40.3  34.9  992.9 -9.9 -9.999 -99.9 -99.99 -9.99
2019/01/20 12:18 EST    6.97   9.58    6  313   16  40.5  34.9  992.9 -9.9 -9.999 -99.9 -99.99 -9.99
2019/01/20 12:24 EST    7.11   9.67    6  319   19  40.3  34.9  993.2 -9.9 -9.999 -99.9 -99.99 -9.99
2019/01/20 12:30 EST    7.24   9.77    6  317   10  40.3  34.9  993.4 -9.9 -9.999 -99.9 -99.99 -9.99
2019/01/20 12:36 EST    7.35   9.85   11  320   15  40.1  34.9  993.5 -9.9 -9.999 -99.9 -99.99 -9.99
2019/01/20 12:42 EST    7.46   9.93   10  312   19  39.7  34.9  993.7 -9.9 -9.999 -99.9 -99.99 -9.99
2019/01/20 12:48 EST    7.55  10.03    9  314   16  39.6  34.9  993.8 -9.9 -9.999 -99.9 -99.99 -9.99
2019/01/20 12:54 EST    7.63  10.09   10  308   22  39.4  34.9  993.8 -9.9 -9.999 -99.9 -99.99 -9.99
2019/01/20 13:00 EST    7.69  10.14   11  319   19  39.2  34.9  993.8 -9.9 -9.999 -99.9 -99.99 -9.99
2019/01/20 13:06 EST    7.75  10.17    9  320   17  39.2  34.9  994.1 -9.9 -9.999 -99.9 -99.99 -9.99
2019/01/20 13:12 EST    7.79  10.19   11  313   25  38.7  34.9  994.2 -9.9 -9.999 -99.9 -99.99 -9.99
2019/01/20 13:18 EST    7.82  10.20   11  321   20  37.9  34.9  994.2 -9.9 -9.999 -99.9 -99.99 -9.99
2019/01/20 13:24 EST    7.83  10.22   10  320   18  37.8  34.9  994.2 -9.9 -9.999 -99.9 -99.99 -9.99
2019/01/20 13:30 EST    7.83  10.22   10  307   21  37.9  34.9  994.4 -9.9 -9.999 -99.9 -99.99 -9.99
2019/01/20 13:36 EST    7.82  10.22   10  309   20  36.7  34.9  994.4 -9.9 -9.999 -99.9 -99.99 -9.99
2019/01/20 13:42 EST    7.80  10.20   14  306   23  36.7  34.9  994.8 -9.9 -9.999 -99.9 -99.99 -9.99
2019/01/20 13:48 EST    7.76  10.18   12  331   19  35.4  34.9  995.3 -9.9 -9.999 -99.9 -99.99 -9.99
2019/01/20 13:54 EST    7.71  10.13   10  339   19  34.5  34.9  995.4 -9.9 -9.999 -99.9 -99.99 -9.99
2019/01/20 14:00 EST    7.65  10.05   12  318   18  34.5  34.9  995.7 -9.9 -9.999 -99.9 -99.99 -9.99
2019/01/20 14:06 EST    7.58   9.98   14  309   23  33.4  34.9  996.0 -9.9 -9.999 -99.9 -99.99 -9.99
2019/01/20 14:12 EST    7.50   9.89   14  312   23  32.5  34.9  996.4 -9.9 -9.999 -99.9 -99.99 -9.99
2019/01/20 14:18 EST    7.41   9.81   14  309   24  32.2  34.9  996.7 -9.9 -9.999 -99.9 -99.99 -9.99
2019/01/20 14:24 EST    7.32   9.71   14  310   23  31.3  34.9  996.8 -9.9 -9.999 -99.9 -99.99 -9.99
2019/01/20 14:30 EST    7.22   9.60   12  315   22  31.6  34.9  996.9 -9.9 -9.999 -99.9 -99.99 -9.99
2019/01/20 14:36 EST    7.11   9.48    9  347   19  31.3  34.9  997.2 -9.9 -9.999 -99.9 -99.99 -9.99
2019/01/20 14:42 EST    6.99   9.36   10  337   23  30.4  34.9  997.6 -9.9 -9.999 -99.9 -99.99 -9.99
2019/01/20 14:48 EST    6.88   9.23   12  324   22  29.7  34.9  997.7 -9.9 -9.999 -99.9 -99.99 -9.99
2019/01/20 14:54 EST    6.76   9.10   10  319   19  29.7  34.9  998.0 -9.9 -9.999 -99.9 -99.99 -9.99
2019/01/20 15:00 EST    6.63   8.99    8  313   17  30.2  34.9  998.5 -9.9 -9.999 -99.9 -99.99 -9.99
2019/01/20 15:06 EST    6.51   8.87   11  325   19  29.5  34.9  998.8 -9.9 -9.999 -99.9 -99.99 -9.99
2019/01/20 15:12 EST    6.38   8.73   11  343   20  28.9  34.9  998.9 -9.9 -9.999 -99.9 -99.99 -9.99
2019/01/20 15:18 EST    6.25   8.61    9  308   14  29.3  34.9  999.0 -9.9 -9.999 -99.9 -99.99 -9.99
2019/01/20 15:24 EST    6.13   8.48    7  325   16  29.5  34.9  999.2 -9.9 -9.999 -99.9 -99.99 -9.99
2019/01/20 15:30 EST    6.00   8.35   10  311   20  29.5  34.9  999.4 -9.9 -9.999 -99.9 -99.99 -9.99
2019/01/20 15:36 EST    5.88   8.22   10  312   18  29.5  34.9  999.6 -9.9 -9.999 -99.9 -99.99 -9.99
2019/01/20 15:42 EST    5.75   8.11   11  340   20  28.9  34.9  999.8 -9.9 -9.999 -99.9 -99.99 -9.99
2019/01/20 15:48 EST    5.63   7.97   10  346   18  28.4  34.9  999.9 -9.9 -9.999 -99.9 -99.99 -9.99
2019/01/20 15:54 EST    5.51   7.83   11  341   20  28.2  34.9 1000.0 -9.9 -9.999 -99.9 -99.99 -9.99
2019/01/20 16:00 EST    5.38   7.70   10  343   19  27.9  34.9 1000.2 -9.9 -9.999 -99.9 -99.99 -9.99
2019/01/20 16:06 EST    5.26   7.56    8  335   15  27.9  35.1 1000.5 -9.9 -9.999 -99.9 -99.99 -9.99
2019/01/20 16:12 EST    5.15   7.43   11  315   19  28.0  35.1 1000.7 -9.9 -9.999 -99.9 -99.99 -9.99
2019/01/20 16:18 EST    5.03   7.29   10  313   19  27.9  35.1 1000.8 -9.9 -9.999 -99.9 -99.99 -9.99
2019/01/20 16:24 EST    4.91   7.16   11  320   21  28.0  35.1 1001.2 -9.9 -9.999 -99.9 -99.99 -9.99
2019/01/20 16:30 EST    4.79   7.02    8  315   14  27.9  35.1 1001.2 -9.9 -9.999 -99.9 -99.99 -9.99
2019/01/20 16:36 EST    4.68   6.90   10  329   17  27.5  35.1 1001.2 -9.9 -9.999 -99.9 -99.99 -9.99
2019/01/20 16:42 EST    4.56   6.77   10  320   20  27.0  35.1 1001.4 -9.9 -9.999 -99.9 -99.99 -9.99
2019/01/20 16:48 EST    4.45   6.65   10  336   18  26.8  35.1 1001.8 -9.9 -9.999 -99.9 -99.99 -9.99
2019/01/20 16:54 EST    4.34   6.53    7  324   16  26.6  35.1 1001.9 -9.9 -9.999 -99.9 -99.99 -9.99
2019/01/20 17:00 EST    4.22   6.41    9  319   14  26.6  35.1 1002.2 -9.9 -9.999 -99.9 -99.99 -9.99
2019/01/20 17:06 EST    4.11   6.29   12  313   23  25.9  35.1 1002.4 -9.9 -9.999 -99.9 -99.99 -9.99
2019/01/20 17:12 EST    4.00   6.16   10  313   17  25.7  35.1 1002.7 -9.9 -9.999 -99.9 -99.99 -9.99
2019/01/20 17:18 EST    3.89   6.04    8  344   15  25.5  35.1 1002.9 -9.9 -9.999 -99.9 -99.99 -9.99
2019/01/20 17:24 EST    3.78   5.90    8  346   21  25.0  35.1 1003.0 -9.9 -9.999 -99.9 -99.99 -9.99
2019/01/20 17:30 EST    3.66   5.78    9  331   16  24.6  35.1 1003.4 -9.9 -9.999 -99.9 -99.99 -9.99
2019/01/20 17:36 EST    3.55   5.67   10  331   23  23.9  35.1 1003.5 -9.9 -9.999 -99.9 -99.99 -9.99
2019/01/20 17:42 EST    3.44   5.53   10  337   19  23.4  35.1 1003.7 -9.9 -9.999 -99.9 -99.99 -9.99
2019/01/20 17:48 EST    3.33   5.41    8  337   19  23.2  35.1 1003.8 -9.9 -9.999 -99.9 -99.99 -9.99
2019/01/20 17:54 EST    3.21   5.29    7  307   12  23.2  35.1 1004.0 -9.9 -9.999 -99.9 -99.99 -9.99
2019/01/20 18:00 EST    3.10   5.18    9  311   16  23.0  35.1 1004.1 -9.9 -9.999 -99.9 -99.99 -9.99
2019/01/20 18:06 EST    2.98   5.06    7  327   16  22.6  35.1 1004.3 -9.9 -9.999 -99.9 -99.99 -9.99
2019/01/20 18:12 EST    2.87   4.95    9  323   19  22.5  35.1 1004.6 -9.9 -9.999 -99.9 -99.99 -9.99
2019/01/20 18:18 EST    2.75   4.84    8  312   19  22.3  35.1 1004.6 -9.9 -9.999 -99.9 -99.99 -9.99
2019/01/20 18:24 EST    2.63   4.73   12  314   23  22.1  35.1 1004.7 -9.9 -9.999 -99.9 -99.99 -9.99
2019/01/20 18:30 EST    2.50   4.62   10  321   20  22.1  35.2 1005.0 -9.9 -9.999 -99.9 -99.99 -9.99
2019/01/20 18:36 EST    2.38   4.49    7  315   14  21.9  35.2 1005.2 -9.9 -9.999 -99.9 -99.99 -9.99
2019/01/20 18:42 EST    2.25   4.37    9  336   21  21.6  35.2 1005.2 -9.9 -9.999 -99.9 -99.99 -9.99
2019/01/20 18:48 EST    2.11   4.25    9  317   14  21.4  35.2 1005.4 -9.9 -9.999 -99.9 -99.99 -9.99
2019/01/20 18:54 EST    1.98   4.15   11  318   19  21.4  35.2 1005.7 -9.9 -9.999 -99.9 -99.99 -9.99
2019/01/20 19:00 EST    1.84   4.04    8  331   18  21.0  35.2 1005.9 -9.9 -9.999 -99.9 -99.99 -9.99
2019/01/20 19:06 EST    1.69   3.93    9  319   14  21.2  35.2 1006.1 -9.9 -9.999 -99.9 -99.99 -9.99
2019/01/20 19:12 EST    1.55   3.82    6  329   13  20.8  35.2 1006.2 -9.9 -9.999 -99.9 -99.99 -9.99
2019/01/20 19:18 EST    1.40   3.69   10  350   20  20.3  35.2 1006.4 -9.9 -9.999 -99.9 -99.99 -9.99
2019/01/20 19:24 EST    1.25   3.58    9  345   16  20.3  35.2 1006.5 -9.9 -9.999 -99.9 -99.99 -9.99
2019/01/20 19:30 EST    1.09   3.49    6  337   13  19.6  35.2 1006.6 -9.9 -9.999 -99.9 -99.99 -9.99
2019/01/20 19:36 EST    0.94   3.38    8  360   15  19.8  35.2 1006.6 -9.9 -9.999 -99.9 -99.99 -9.99
2019/01/20 19:42 EST    0.79   3.26    7  355   18  19.4  35.2 1006.8 -9.9 -9.999 -99.9 -99.99 -9.99
2019/01/20 19:48 EST    0.63   3.15    7  337   13  19.2  35.2 1006.8 -9.9 -9.999 -99.9 -99.99 -9.99
2019/01/20 19:54 EST    0.48   3.05    7  315   15  19.4  35.2 1006.8 -9.9 -9.999 -99.9 -99.99 -9.99
2019/01/20 20:00 EST    0.34   2.94    7  343   14  19.6  35.2 1006.9 -9.9 -9.999 -99.9 -99.99 -9.99
2019/01/20 20:06 EST    0.19   2.84    9  335   14  19.2  35.2 1007.0 -9.9 -9.999 -99.9 -99.99 -9.99
2019/01/20 20:12 EST    0.06   2.73    9  342   18  19.4  35.2 1007.2 -9.9 -9.999 -99.9 -99.99 -9.99
2019/01/20 20:18 EST   -0.07   2.63    8  323   20  19.4  35.2 1007.1 -9.9 -9.999 -99.9 -99.99 -9.99
2019/01/20 20:24 EST   -0.19   2.53    7  325   17  19.6  35.4 1007.2 -9.9 -9.999 -99.9 -99.99 -9.99
2019/01/20 20:30 EST   -0.30   2.42    7  329   16  19.2  35.4 1007.2 -9.9 -9.999 -99.9 -99.99 -9.99
2019/01/20 20:36 EST   -0.39   2.33   10  320   22  19.2  35.4 1007.2 -9.9 -9.999 -99.9 -99.99 -9.99
2019/01/20 20:42 EST   -0.47   2.22   10  319   26  19.2  35.4 1007.4 -9.9 -9.999 -99.9 -99.99 -9.99
2019/01/20 20:48 EST   -0.54   2.14    8  309   21  19.2  35.4 1007.7 -9.9 -9.999 -99.9 -99.99 -9.99
2019/01/20 20:54 EST   -0.59   2.03    8  323   17  19.0  35.4 1007.7 -9.9 -9.999 -99.9 -99.99 -9.99
2019/01/20 21:00 EST   -0.63   1.94   10  311   18  19.0  35.4 1007.7 -9.9 -9.999 -99.9 -99.99 -9.99
2019/01/20 21:06 EST   -0.64   1.84    6  308   16  18.9  35.4 1007.8 -9.9 -9.999 -99.9 -99.99 -9.99
2019/01/20 21:12 EST   -0.64   1.73    9  335   17  18.7  35.4 1008.0 -9.9 -9.999 -99.9 -99.99 -9.99
2019/01/20 21:18 EST   -0.62   1.63    7  316   15  18.9  35.4 1008.1 -9.9 -9.999 -99.9 -99.99 -9.99
2019/01/20 21:24 EST   -0.58   1.53   10  320   20  18.9  35.4 1008.1 -9.9 -9.999 -99.9 -99.99 -9.99
2019/01/20 21:30 EST   -0.53   1.45    9  307   20  18.9  35.4 1008.2 -9.9 -9.999 -99.9 -99.99 -9.99
2019/01/20 21:36 EST   -0.45   1.37    5  315   19  18.9  35.4 1008.3 -9.9 -9.999 -99.9 -99.99 -9.99
2019/01/20 21:42 EST   -0.36   1.28    9  323   19  18.9  35.4 1008.2 -9.9 -9.999 -99.9 -99.99 -9.99
2019/01/20 21:48 EST   -0.25   1.20    8  318   17  18.9  35.4 1008.4 -9.9 -9.999 -99.9 -99.99 -9.99
2019/01/20 21:54 EST   -0.12   1.12   10  309   15  18.7  35.6 1008.5 -9.9 -9.999 -99.9 -99.99 -9.99
2019/01/20 22:00 EST    0.02   1.05   10  305   16  18.7  35.6 1008.6 -9.9 -9.999 -99.9 -99.99 -9.99
2019/01/20 22:06 EST    0.17   0.98    8  312   15  18.5  35.6 1008.8 -9.9 -9.999 -99.9 -99.99 -9.99
2019/01/20 22:12 EST    0.34   0.92   11  294   21  18.3  35.6 1009.1 -9.9 -9.999 -99.9 -99.99 -9.99
2019/01/20 22:18 EST    0.52   0.85   10  310   17  18.1  35.6 1009.1 -9.9 -9.999 -99.9 -99.99 -9.99
2019/01/20 22:24 EST    0.71   0.77   10  305   21  18.0  35.6 1009.4 -9.9 -9.999 -99.9 -99.99 -9.99
2019/01/20 22:30 EST    0.91   0.72   10  306   17  17.8  35.6 1009.4 -9.9 -9.999 -99.9 -99.99 -9.99
2019/01/20 22:36 EST    1.12   0.70   11  306   17  17.8  35.6 1009.7 -9.9 -9.999 -99.9 -99.99 -9.99
2019/01/20 22:42 EST    1.34   0.66   12  297   24  17.8  35.6 1009.9 -9.9 -9.999 -99.9 -99.99 -9.99
2019/01/20 22:48 EST    1.56   0.65   14  294   22  17.1  35.6 1010.1 -9.9 -9.999 -99.9 -99.99 -9.99
2019/01/20 22:54 EST    1.78   0.69    9  300   17  16.9  35.6 1010.1 -9.9 -9.999 -99.9 -99.99 -9.99
2019/01/20 23:00 EST    2.01   0.77   13  303   23  16.9  35.8 1010.3 -9.9 -9.999 -99.9 -99.99 -9.99
2019/01/20 23:06 EST    2.24   0.90   11  304   21  16.7  35.8 1010.3 -9.9 -9.999 -99.9 -99.99 -9.99
2019/01/20 23:12 EST    2.47   1.11   15  298   24  16.7  35.8 1010.4 -9.9 -9.999 -99.9 -99.99 -9.99
2019/01/20 23:18 EST    2.70   1.35   11  312   25  16.7  35.8 1010.6 -9.9 -9.999 -99.9 -99.99 -9.99
2019/01/20 23:24 EST    2.93   1.63    9  306   16  16.2  35.8 1010.7 -9.9 -9.999 -99.9 -99.99 -9.99
2019/01/20 23:30 EST    3.16   1.87   12  307   23  16.3  35.8 1010.8 -9.9 -9.999 -99.9 -99.99 -9.99
2019/01/20 23:36 EST    3.38   2.11   13  304   23  16.0  35.8 1010.9 -9.9 -9.999 -99.9 -99.99 -9.99
2019/01/20 23:42 EST    3.61   2.30   10  306   18  16.2  35.8 1011.2 -9.9 -9.999 -99.9 -99.99 -9.99
2019/01/20 23:48 EST    3.83   2.47   14  299   25  15.8  35.8 1011.2 -9.9 -9.999 -99.9 -99.99 -9.99
2019/01/20 23:54 EST    4.05   2.63   15  296   25  16.0  35.8 1011.4 -9.9 -9.999 -99.9 -99.99 -9.99
2019/01/21 00:00 EST    4.26   2.77    8  313   21  15.8  35.8 1011.4 -9.9 -9.999 -99.9 -99.99 -9.99
2019/01/21 00:06 EST    4.47   2.92    9  306   17  15.6  35.8 1011.5 -9.9 -9.999 -99.9 -99.99 -9.99
2019/01/21 00:12 EST    4.67   3.06    9  305   15  15.6  35.8 1011.7 -9.9 -9.999 -99.9 -99.99 -9.99
2019/01/21 00:18 EST    4.87   3.19   10  312   19  15.1  35.8 1011.6 -9.9 -9.999 -99.9 -99.99 -9.99
2019/01/21 00:24 EST    5.06   3.33   11  310   17  15.1  35.8 1011.7 -9.9 -9.999 -99.9 -99.99 -9.99
2019/01/21 00:30 EST    5.25   3.44   10  306   22  15.1  35.6 1011.8 -9.9 -9.999 -99.9 -99.99 -9.99
2019/01/21 00:36 EST    5.42   3.57   13  297   19  15.3  35.6 1011.8 -9.9 -9.999 -99.9 -99.99 -9.99
2019/01/21 00:42 EST    5.59   3.70   14  298   22  14.9  35.6 1011.9 -9.9 -9.999 -99.9 -99.99 -9.99
2019/01/21 00:48 EST    5.76   3.86    9  306   25  14.5  35.6 1011.9 -9.9 -9.999 -99.9 -99.99 -9.99
2019/01/21 00:54 EST    5.91   4.01   13  303   23  14.4  35.6 1012.1 -9.9 -9.999 -99.9 -99.99 -9.99
2019/01/21 01:00 EST    6.05   4.18   13  309   26  14.4  35.6 1012.2 -9.9 -9.999 -99.9 -99.99 -9.99
2019/01/21 01:06 EST    6.18   4.36   11  307   23  14.2  35.6 1012.4 -9.9 -9.999 -99.9 -99.99 -9.99
2019/01/21 01:12 EST    6.30   4.56   11  303   20  14.2  35.6 1012.5 -9.9 -9.999 -99.9 -99.99 -9.99
2019/01/21 01:18 EST    6.41   4.75    8  306   24  14.0  35.6 1012.7 -9.9 -9.999 -99.9 -99.99 -9.99
2019/01/21 01:24 EST    6.50   4.92   11  317   20  13.8  35.6 1012.7 -9.9 -9.999 -99.9 -99.99 -9.99
2019/01/21 01:30 EST    6.59   5.07    9  311   23  13.8  35.4 1012.9 -9.9 -9.999 -99.9 -99.99 -9.99
2019/01/21 01:36 EST    6.66   5.16   10  310   21  13.6  35.4 1013.0 -9.9 -9.999 -99.9 -99.99 -9.99
2019/01/21 01:42 EST    6.71   5.22   12  303   19  13.8  35.4 1013.0 -9.9 -9.999 -99.9 -99.99 -9.99
2019/01/21 01:48 EST    6.75   5.27    7  309   14  13.5  35.4 1013.2 -9.9 -9.999 -99.9 -99.99 -9.99
2019/01/21 01:54 EST    6.78   5.30    9  308   17 -99.9 -99.9 -999.9 -9.9 -9.999 -99.9 -99.99 -9.99
2019/01/21 02:00 EST    6.80 -99.99 -999 -999 -999 -99.9 -99.9 -999.9 -9.9 -9.999 -99.9 -99.99 -9.99
2019/01/21 02:06 EST    6.80 -99.99 -999 -999 -999 -99.9 -99.9 -999.9 -9.9 -9.999 -99.9 -99.99 -9.99
2019/01/21 02:12 EST    6.78 -99.99 -999 -999 -999 -99.9 -99.9 -999.9 -9.9 -9.999 -99.9 -99.99 -9.99
2019/01/21 02:18 EST    6.76 -99.99 -999 -999 -999 -99.9 -99.9 -999.9 -9.9 -9.999 -99.9 -99.99 -9.99
2019/01/21 02:24 EST    6.72 -99.99 -999 -999 -999 -99.9 -99.9 -999.9 -9.9 -9.999 -99.9 -99.99 -9.99
2019/01/21 02:30 EST    6.67 -99.99 -999 -999 -999 -99.9 -99.9 -999.9 -9.9 -9.999 -99.9 -99.99 -9.99
2019/01/21 02:36 EST    6.60 -99.99 -999 -999 -999 -99.9 -99.9 -999.9 -9.9 -9.999 -99.9 -99.99 -9.99
2019/01/21 02:42 EST    6.53 -99.99 -999 -999 -999 -99.9 -99.9 -999.9 -9.9 -9.999 -99.9 -99.99 -9.99
2019/01/21 02:48 EST    6.45 -99.99 -999 -999 -999 -99.9 -99.9 -999.9 -9.9 -9.999 -99.9 -99.99 -9.99
2019/01/21 02:54 EST    6.36 -99.99 -999 -999 -999 -99.9 -99.9 -999.9 -9.9 -9.999 -99.9 -99.99 -9.99
2019/01/21 03:00 EST    6.26 -99.99 -999 -999 -999 -99.9 -99.9 -999.9 -9.9 -9.999 -99.9 -99.99 -9.99
2019/01/21 03:06 EST    6.15 -99.99 -999 -999 -999 -99.9 -99.9 -999.9 -9.9 -9.999 -99.9 -99.99 -9.99
2019/01/21 03:12 EST    6.04 -99.99 -999 -999 -999 -99.9 -99.9 -999.9 -9.9 -9.999 -99.9 -99.99 -9.99
2019/01/21 03:18 EST    5.92 -99.99 -999 -999 -999 -99.9 -99.9 -999.9 -9.9 -9.999 -99.9 -99.99 -9.99
2019/01/21 03:24 EST    5.80 -99.99 -999 -999 -999 -99.9 -99.9 -999.9 -9.9 -9.999 -99.9 -99.99 -9.99
2019/01/21 03:30 EST    5.67 -99.99 -999 -999 -999 -99.9 -99.9 -999.9 -9.9 -9.999 -99.9 -99.99 -9.99
2019/01/21 03:36 EST    5.54 -99.99 -999 -999 -999 -99.9 -99.9 -999.9 -9.9 -9.999 -99.9 -99.99 -9.99
2019/01/21 03:42 EST    5.41 -99.99 -999 -999 -999 -99.9 -99.9 -999.9 -9.9 -9.999 -99.9 -99.99 -9.99
2019/01/21 03:48 EST    5.28 -99.99 -999 -999 -999 -99.9 -99.9 -999.9 -9.9 -9.999 -99.9 -99.99 -9.99
2019/01/21 03:54 EST    5.15 -99.99 -999 -999 -999 -99.9 -99.9 -999.9 -9.9 -9.999 -99.9 -99.99 -9.99
2019/01/21 04:00 EST    5.01 -99.99 -999 -999 -999 -99.9 -99.9 -999.9 -9.9 -9.999 -99.9 -99.99 -9.99
2019/01/21 04:06 EST    4.88 -99.99 -999 -999 -999 -99.9 -99.9 -999.9 -9.9 -9.999 -99.9 -99.99 -9.99
2019/01/21 04:12 EST    4.74 -99.99 -999 -999 -999 -99.9 -99.9 -999.9 -9.9 -9.999 -99.9 -99.99 -9.99
2019/01/21 04:18 EST    4.61 -99.99 -999 -999 -999 -99.9 -99.9 -999.9 -9.9 -9.999 -99.9 -99.99 -9.99
2019/01/21 04:24 EST    4.47 -99.99 -999 -999 -999 -99.9 -99.9 -999.9 -9.9 -9.999 -99.9 -99.99 -9.99
2019/01/21 04:30 EST    4.34 -99.99 -999 -999 -999 -99.9 -99.9 -999.9 -9.9 -9.999 -99.9 -99.99 -9.99
2019/01/21 04:36 EST    4.20 -99.99 -999 -999 -999 -99.9 -99.9 -999.9 -9.9 -9.999 -99.9 -99.99 -9.99
2019/01/21 04:42 EST    4.07 -99.99 -999 -999 -999 -99.9 -99.9 -999.9 -9.9 -9.999 -99.9 -99.99 -9.99
2019/01/21 04:48 EST    3.94 -99.99 -999 -999 -999 -99.9 -99.9 -999.9 -9.9 -9.999 -99.9 -99.99 -9.99
2019/01/21 04:54 EST    3.80 -99.99 -999 -999 -999 -99.9 -99.9 -999.9 -9.9 -9.999 -99.9 -99.99 -9.99
2019/01/21 05:00 EST    3.67 -99.99 -999 -999 -999 -99.9 -99.9 -999.9 -9.9 -9.999 -99.9 -99.99 -9.99
2019/01/21 05:06 EST    3.54 -99.99 -999 -999 -999 -99.9 -99.9 -999.9 -9.9 -9.999 -99.9 -99.99 -9.99
2019/01/21 05:12 EST    3.42 -99.99 -999 -999 -999 -99.9 -99.9 -999.9 -9.9 -9.999 -99.9 -99.99 -9.99
2019/01/21 05:18 EST    3.29 -99.99 -999 -999 -999 -99.9 -99.9 -999.9 -9.9 -9.999 -99.9 -99.99 -9.99
2019/01/21 05:24 EST    3.16 -99.99 -999 -999 -999 -99.9 -99.9 -999.9 -9.9 -9.999 -99.9 -99.99 -9.99
2019/01/21 05:30 EST    3.04 -99.99 -999 -999 -999 -99.9 -99.9 -999.9 -9.9 -9.999 -99.9 -99.99 -9.99
2019/01/21 05:36 EST    2.91 -99.99 -999 -999 -999 -99.9 -99.9 -999.9 -9.9 -9.999 -99.9 -99.99 -9.99
2019/01/21 05:42 EST    2.79 -99.99 -999 -999 -999 -99.9 -99.9 -999.9 -9.9 -9.999 -99.9 -99.99 -9.99
2019/01/21 05:48 EST    2.67 -99.99 -999 -999 -999 -99.9 -99.9 -999.9 -9.9 -9.999 -99.9 -99.99 -9.99
2019/01/21 05:54 EST    2.55 -99.99 -999 -999 -999 -99.9 -99.9 -999.9 -9.9 -9.999 -99.9 -99.99 -9.99
2019/01/21 06:00 EST    2.44 -99.99 -999 -999 -999 -99.9 -99.9 -999.9 -9.9 -9.999 -99.9 -99.99 -9.99
2019/01/21 06:06 EST    2.32 -99.99 -999 -999 -999 -99.9 -99.9 -999.9 -9.9 -9.999 -99.9 -99.99 -9.99
2019/01/21 06:12 EST    2.21 -99.99 -999 -999 -999 -99.9 -99.9 -999.9 -9.9 -9.999 -99.9 -99.99 -9.99
2019/01/21 06:18 EST    2.09 -99.99 -999 -999 -999 -99.9 -99.9 -999.9 -9.9 -9.999 -99.9 -99.99 -9.99
2019/01/21 06:24 EST    1.98 -99.99 -999 -999 -999 -99.9 -99.9 -999.9 -9.9 -9.999 -99.9 -99.99 -9.99
2019/01/21 06:30 EST    1.87 -99.99 -999 -999 -999 -99.9 -99.9 -999.9 -9.9 -9.999 -99.9 -99.99 -9.99
2019/01/21 06:36 EST    1.76 -99.99 -999 -999 -999 -99.9 -99.9 -999.9 -9.9 -9.999 -99.9 -99.99 -9.99
2019/01/21 06:42 EST    1.66 -99.99 -999 -999 -999 -99.9 -99.9 -999.9 -9.9 -9.999 -99.9 -99.99 -9.99
2019/01/21 06:48 EST    1.55 -99.99 -999 -999 -999 -99.9 -99.9 -999.9 -9.9 -9.999 -99.9 -99.99 -9.99
2019/01/21 06:54 EST    1.44 -99.99 -999 -999 -999 -99.9 -99.9 -999.9 -9.9 -9.999 -99.9 -99.99 -9.99
2019/01/21 07:00 EST    1.33 -99.99 -999 -999 -999 -99.9 -99.9 -999.9 -9.9 -9.999 -99.9 -99.99 -9.99
2019/01/21 07:06 EST    1.23 -99.99 -999 -999 -999 -99.9 -99.9 -999.9 -9.9 -9.999 -99.9 -99.99 -9.99
2019/01/21 07:12 EST    1.12 -99.99 -999 -999 -999 -99.9 -99.9 -999.9 -9.9 -9.999 -99.9 -99.99 -9.99
2019/01/21 07:18 EST    1.01 -99.99 -999 -999 -999 -99.9 -99.9 -999.9 -9.9 -9.999 -99.9 -99.99 -9.99
2019/01/21 07:24 EST    0.90 -99.99 -999 -999 -999 -99.9 -99.9 -999.9 -9.9 -9.999 -99.9 -99.99 -9.99
2019/01/21 07:30 EST    0.79 -99.99 -999 -999 -999 -99.9 -99.9 -999.9 -9.9 -9.999 -99.9 -99.99 -9.99
2019/01/21 07:36 EST    0.68 -99.99 -999 -999 -999 -99.9 -99.9 -999.9 -9.9 -9.999 -99.9 -99.99 -9.99
2019/01/21 07:42 EST    0.57 -99.99 -999 -999 -999 -99.9 -99.9 -999.9 -9.9 -9.999 -99.9 -99.99 -9.99
2019/01/21 07:48 EST    0.46 -99.99 -999 -999 -999 -99.9 -99.9 -999.9 -9.9 -9.999 -99.9 -99.99 -9.99
2019/01/21 07:54 EST    0.35 -99.99 -999 -999 -999 -99.9 -99.9 -999.9 -9.9 -9.999 -99.9 -99.99 -9.99
2019/01/21 08:00 EST    0.25 -99.99 -999 -999 -999 -99.9 -99.9 -999.9 -9.9 -9.999 -99.9 -99.99 -9.99

Revised: 08/08/2018
NOAA / National Ocean Service
Web site owner: Center for Operational Oceanographic Products and Services